Time;durP1;ratioP1;P1;durP2;ratioP2;P2;SDS_P1;SDS_P2;PMS_P1;PMS_P2;Temp;Humidity;BMP_temperature;BMP_pressure;BME280_temperature;BME280_humidity;BME280_pressure;Samples;Min_cycle;Max_cycle;Signal;HPM_P1;HPM_P2
2023/06/08 00:00:50;;;;;;;15.07;5.18;;;;;;;;;;5020083;28;20041;-76
2023/06/08 00:03:17;;;;;;;14.95;5.30;;;;;;;;;;5019983;28;20045;-76
2023/06/08 00:05:47;;;;;;;13.80;4.93;;;;;;;;;;5020323;28;20399;-76
2023/06/08 00:08:13;;;;;;;15.48;5.15;;;;;;;;;;5026476;28;20034;-77
2023/06/08 00:10:45;;;;;;;17.83;5.28;;;;;;;;;;5025136;28;20545;-76
2023/06/08 00:13:11;;;;;;;16.83;5.47;;;;;;;;;;5020679;28;20064;-76
2023/06/08 00:15:37;;;;;;;11.38;4.88;;;;;;;;;;5024301;28;20042;-76
2023/06/08 00:18:04;;;;;;;18.00;5.40;;;;;;;;;;5027531;28;20037;-76
2023/06/08 00:20:33;;;;;;;10.70;4.63;;;;;;;;;;5022879;28;20025;-76
2023/06/08 00:22:59;;;;;;;18.73;5.20;;;;;;;;;;5018812;28;20030;-74
2023/06/08 00:25:25;;;;;;;18.27;6.03;;;;;;;;;;5023696;28;20030;-75
2023/06/08 00:27:51;;;;;;;15.77;4.97;;;;;;;;;;5019735;28;20049;-75
2023/06/08 00:30:17;;;;;;;20.50;6.72;;;;;;;;;;5023365;28;20064;-76
2023/06/08 00:32:43;;;;;;;17.05;5.78;;;;;;;;;;5021319;28;20030;-75
2023/06/08 00:35:09;;;;;;;19.77;7.68;;;;;;;;;;5022254;28;20064;-75
2023/06/08 00:37:36;;;;;;;18.90;6.07;;;;;;;;;;5024655;28;20069;-76
2023/06/08 00:40:04;;;;;;;16.88;6.38;;;;;;;;;;5020881;28;20061;-76
2023/06/08 00:42:30;;;;;;;12.45;4.85;;;;;;;;;;5018616;28;20030;-75
2023/06/08 00:44:56;;;;;;;18.25;6.07;;;;;;;;;;5021141;28;20360;-75
2023/06/08 00:47:22;;;;;;;15.45;6.90;;;;;;;;;;5024908;28;20040;-75
2023/06/08 00:49:49;;;;;;;16.83;7.22;;;;;;;;;;5031786;28;20064;-75
2023/06/08 00:52:16;;;;;;;20.13;8.77;;;;;;;;;;5031404;28;20114;-75
2023/06/08 00:54:43;;;;;;;24.65;9.80;;;;;;;;;;5030424;28;20029;-75
2023/06/08 00:57:10;;;;;;;25.58;9.90;;;;;;;;;;5025857;28;20056;-76
2023/06/08 00:59:36;;;;;;;15.13;8.30;;;;;;;;;;5029653;28;20115;-75
2023/06/08 01:02:04;;;;;;;18.42;8.90;;;;;;;;;;5033282;28;20035;-76
2023/06/08 01:04:31;;;;;;;18.15;8.02;;;;;;;;;;5030982;28;20029;-76
2023/06/08 01:07:14;;;;;;;19.10;9.02;;;;;;;;;;5028482;28;20082;-76
2023/06/08 01:09:43;;;;;;;20.27;9.38;;;;;;;;;;5026006;28;20486;-76
2023/06/08 01:12:21;;;;;;;22.58;10.07;;;;;;;;;;5028771;28;20076;-75
2023/06/08 01:15:13;;;;;;;23.35;9.98;;;12.80;99.90;;;;;;5027473;28;20024;-75
2023/06/08 01:17:41;;;;;;;22.70;10.10;;;;;;;;;;5016986;28;20084;-75
2023/06/08 01:20:18;;;;;;;14.38;9.40;;;;;;;;;;5019408;28;20021;-75
2023/06/08 01:23:04;;;;;;;20.65;10.77;;;;;;;;;;5027024;28;20022;-75
2023/06/08 01:25:32;;;;;;;26.65;11.52;;;;;;;;;;5029828;28;20143;-75
2023/06/08 01:28:15;;;;;;;17.35;10.10;;;;;;;;;;5032959;28;20033;-75
2023/06/08 01:30:45;;;;;;;19.98;10.35;;;;;;;;;;5028526;28;20029;-74
2023/06/08 01:33:16;;;;;;;20.77;10.20;;;;;;;;;;5029213;28;20482;-74
2023/06/08 01:35:43;;;;;;;28.25;11.50;;;;;;;;;;5022715;28;20117;-75
2023/06/08 01:38:17;;;;;;;26.85;12.23;;;;;;;;;;5032654;28;20118;-75
2023/06/08 01:40:44;;;;;;;19.33;10.43;;;;;;;;;;5035431;28;20029;-74
2023/06/08 01:43:12;;;;;;;21.17;9.95;;;;;;;;;;5028507;28;20033;-76
2023/06/08 01:45:40;;;;;;;22.58;9.70;;;;;;;;;;5027338;28;20037;-74
2023/06/08 01:48:07;;;;;;;20.42;8.93;;;;;;;;;;5031216;28;20083;-76
2023/06/08 01:50:34;;;;;;;25.75;10.00;;;;;;;;;;5028656;28;20037;-75
2023/06/08 01:53:01;;;;;;;20.40;7.47;;;;;;;;;;5025600;28;20404;-75
2023/06/08 01:55:30;;;;;;;19.08;7.35;;;;;;;;;;5030534;28;20028;-75
2023/06/08 01:57:56;;;;;;;18.42;7.70;;;;;;;;;;5030772;28;20025;-75
2023/06/08 02:00:22;;;;;;;16.50;6.43;;;;;;;;;;5028351;28;20053;-75
2023/06/08 02:02:48;;;;;;;18.27;7.28;;;;;;;;;;5028863;28;20073;-75
2023/06/08 02:05:15;;;;;;;18.35;7.18;;;;;;;;;;5041575;28;20038;-75
2023/06/08 02:07:42;;;;;;;13.20;6.43;;;;;;;;;;5028662;28;20402;-75
2023/06/08 02:10:08;;;;;;;15.15;6.15;;;;;;;;;;5030820;28;20079;-76
2023/06/08 02:12:35;;;;;;;16.40;6.88;;;;;;;;;;5029581;28;20079;-75
2023/06/08 02:15:01;;;;;;;14.10;5.95;;;;;;;;;;5035208;28;20033;-75
2023/06/08 02:17:29;;;;;;;19.85;7.40;;;;;;;;;;5027357;28;20505;-75
2023/06/08 02:19:55;;;;;;;15.52;7.10;;;;;;;;;;5030942;28;20044;-75
2023/06/08 02:22:21;;;;;;;20.17;6.43;;;;;;;;;;5027724;28;20088;-74
2023/06/08 02:24:48;;;;;;;17.95;6.63;;;;;;;;;;5029709;28;20034;-76
2023/06/08 02:27:14;;;;;;;20.08;7.32;;;;;;;;;;5030764;28;20474;-76
2023/06/08 02:29:41;;;;;;;18.00;7.32;;;;;;;;;;5030870;28;20037;-75
2023/06/08 02:32:07;;;;;;;20.10;7.00;;;;;;;;;;5031048;28;20061;-75
2023/06/08 02:34:33;;;;;;;16.60;6.85;;;;;;;;;;5028563;28;20044;-75
2023/06/08 02:36:59;;;;;;;23.38;6.72;;;;;;;;;;5030977;28;20041;-75
2023/06/08 02:39:25;;;;;;;19.08;6.75;;;;;;;;;;5026155;28;20040;-75
2023/06/08 02:41:51;;;;;;;16.10;6.65;;;;;;;;;;5030987;28;20113;-74
2023/06/08 02:44:17;;;;;;;13.93;6.70;;;;;;;;;;5024643;28;20494;-75
2023/06/08 02:46:43;;;;;;;22.33;8.48;;;;;;;;;;5034463;28;20041;-75
2023/06/08 02:49:10;;;;;;;20.08;7.63;;;;;;;;;;5033654;28;20108;-74
2023/06/08 02:51:36;;;;;;;16.67;7.60;;;;;;;;;;5030657;28;20033;-75
2023/06/08 02:54:02;;;;;;;18.05;7.70;;;;;;;;;;5029403;28;20470;-74
2023/06/08 02:56:28;;;;;;;26.63;9.88;;;;;;;;;;5028970;28;20045;-75
2023/06/08 02:58:54;;;;;;;21.65;9.55;;;;;;;;;;5028108;28;20422;-74
2023/06/08 03:01:21;;;;;;;24.50;8.70;;;;;;;;;;5023518;28;20423;-74
2023/06/08 03:03:47;;;;;;;21.77;8.60;;;;;;;;;;5010959;28;20041;-75
2023/06/08 03:06:17;;;;;;;25.90;7.88;;;;;;;;;;5029604;28;20581;-75
2023/06/08 03:08:47;;;;;;;22.58;8.68;;;;;;;;;;5027358;28;20072;-74
2023/06/08 03:11:14;;;;;;;16.15;8.20;;;;;;;;;;5027196;28;20037;-76
2023/06/08 03:13:40;;;;;;;17.85;8.93;;;;;;;;;;5027720;28;20376;-75
2023/06/08 03:16:06;;;;;;;25.17;9.48;;;;;;;;;;5028390;28;20048;-74
2023/06/08 03:18:32;;;;;;;21.67;9.35;;;;;;;;;;5028655;28;20065;-75
2023/06/08 03:20:58;;;;;;;17.42;9.60;;;;;;;;;;5027176;28;20021;-74
2023/06/08 03:23:24;;;;;;;23.35;10.75;;;;;;;;;;5026726;28;20088;-74
2023/06/08 03:25:51;;;;;;;17.92;9.57;;;;;;;;;;5022817;28;20037;-74
2023/06/08 03:28:17;;;;;;;20.25;8.82;;;;;;;;;;5028593;28;20225;-75
2023/06/08 03:30:43;;;;;;;30.38;10.07;;;;;;;;;;5028137;28;20478;-74
2023/06/08 03:33:10;;;;;;;18.67;8.32;;;;;;;;;;5030906;28;20038;-75
2023/06/08 03:35:36;;;;;;;22.15;8.18;;;;;;;;;;5025490;28;20034;-75
2023/06/08 03:38:03;;;;;;;15.63;6.82;;;;;;;;;;5032293;28;20038;-75
2023/06/08 03:40:29;;;;;;;21.27;7.43;;;;;;;;;;5015147;28;20213;-75
2023/06/08 03:42:55;;;;;;;17.95;7.32;;;;;;;;;;5032563;28;20068;-74
2023/06/08 03:45:21;;;;;;;15.25;7.07;;;;;;;;;;5029334;28;20040;-73
2023/06/08 03:47:47;;;;;;;15.48;6.05;;;;;;;;;;5032546;28;20048;-75
2023/06/08 03:50:13;;;;;;;18.27;7.30;;;;;;;;;;5025716;28;20086;-75
2023/06/08 03:52:39;;;;;;;14.48;6.10;;;;;;;;;;5032684;28;20033;-75
2023/06/08 03:55:06;;;;;;;19.52;7.90;;;;;;;;;;5034529;28;20029;-75
2023/06/08 03:57:32;;;;;;;13.88;6.43;;;;;;;;;;5024851;28;20104;-75
2023/06/08 03:59:59;;;;;;;18.35;7.45;;;;;;;;;;5032131;28;20045;-75
2023/06/08 04:02:25;;;;;;;16.83;6.82;;;;;;;;;;5017621;28;20144;-75
2023/06/08 04:04:53;;;;;;;12.32;6.55;;;;;;;;;;5040717;28;20068;-75
2023/06/08 04:07:20;;;;;;;19.88;7.05;;;;;;;;;;5033101;28;20028;-76
2023/06/08 04:09:47;;;;;;;17.77;6.03;;;;;;;;;;5033296;28;20031;-76
2023/06/08 04:12:13;;;;;;;16.90;7.38;;;;;;;;;;5032365;28;20033;-76
2023/06/08 04:14:39;;;;;;;19.88;6.30;;;;;;;;;;5025563;28;20034;-75
2023/06/08 04:17:05;;;;;;;15.60;6.63;;;;;;;;;;5025978;28;20042;-75
2023/06/08 04:19:31;;;;;;;15.18;6.03;;;;;;;;;;5014667;28;20033;-75
2023/06/08 04:21:57;;;;;;;15.68;5.63;;;;;;;;;;5031255;28;20030;-75
2023/06/08 04:24:24;;;;;;;14.90;5.15;;;;;;;;;;5033270;28;20026;-75
2023/06/08 04:26:50;;;;;;;18.10;5.85;;;;;;;;;;5031016;28;20042;-75
2023/06/08 04:29:16;;;;;;;19.58;6.10;;;;;;;;;;5026771;28;20040;-76
2023/06/08 04:31:42;;;;;;;13.55;5.20;;;;;;;;;;5029807;28;20030;-74
2023/06/08 04:34:10;;;;;;;17.67;5.35;;;;;;;;;;5031968;28;20086;-75
2023/06/08 04:36:36;;;;;;;17.10;6.15;;;;;;;;;;5031457;28;20171;-75
2023/06/08 04:39:02;;;;;;;21.15;4.82;;;;;;;;;;5031117;28;20509;-75
2023/06/08 04:41:29;;;;;;;14.85;5.32;;;;;;;;;;5032917;28;20140;-76
2023/06/08 04:44:01;;;;;;;14.93;4.32;;;;;;;;;;5028352;28;20675;-75
2023/06/08 04:46:27;;;;;;;18.17;4.60;;;;;;;;;;5033076;28;20039;-75
2023/06/08 04:48:55;;;;;;;18.88;4.80;;;;;;;;;;5028996;28;20060;-75
2023/06/08 04:51:23;;;;;;;16.05;4.68;;;;;;;;;;5030680;28;20029;-75
2023/06/08 04:53:51;;;;;;;16.52;5.97;;;;;;;;;;5023144;28;20029;-75
2023/06/08 04:56:18;;;;;;;25.80;4.90;;;;;;;;;;5031558;28;20053;-76
2023/06/08 04:58:48;;;;;;;16.63;4.90;;;;;;;;;;5029244;28;20029;-74
2023/06/08 05:01:15;;;;;;;18.70;5.15;;;;;;;;;;5025937;28;20052;-76
2023/06/08 05:03:42;;;;;;;14.15;5.10;;;;;;;;;;5030245;28;20080;-76
2023/06/08 05:06:08;;;;;;;10.07;4.57;;;;;;;;;;5030805;28;20033;-75
2023/06/08 05:08:35;;;;;;;11.57;4.47;;;;;;;;;;5029876;28;20033;-76
2023/06/08 05:11:00;;;;;;;20.88;5.22;;;;;;;;;;5031103;28;20364;-75
2023/06/08 05:13:26;;;;;;;16.52;5.10;;;;;;;;;;5029099;28;20124;-75
2023/06/08 05:15:57;;;;;;;16.17;5.10;;;;;;;;;;5027256;28;20047;-75
2023/06/08 05:18:23;;;;;;;17.30;4.97;;;;;;;;;;5019042;28;20068;-74
2023/06/08 05:20:50;;;;;;;10.82;4.68;;;;;;;;;;5028533;28;20041;-75
2023/06/08 05:23:16;;;;;;;17.27;3.85;;;;;;;;;;5017363;28;20557;-74
2023/06/08 05:25:42;;;;;;;21.05;6.50;;;;;;;;;;5009530;28;20041;-76
2023/06/08 05:28:08;;;;;;;14.40;4.85;;;;;;;;;;5014484;28;20548;-76
2023/06/08 05:30:34;;;;;;;17.13;4.55;;;;;;;;;;5010696;28;20037;-75
2023/06/08 05:33:00;;;;;;;12.45;4.75;;;;;;;;;;5008190;28;21768;-73
2023/06/08 05:35:26;;;;;;;13.68;4.78;;;;;;;;;;5012393;28;20051;-74
2023/06/08 05:37:52;;;;;;;21.63;7.60;;;;;;;;;;5013370;28;20139;-74
2023/06/08 05:40:18;;;;;;;14.10;4.50;;;;;;;;;;5029891;28;20042;-74
2023/06/08 05:42:45;;;;;;;16.23;5.00;;;;;;;;;;5031282;28;20025;-74
2023/06/08 05:45:11;;;;;;;14.07;4.38;;;;;;;;;;5029682;28;20049;-74
2023/06/08 05:47:37;;;;;;;10.63;4.57;;;;;;;;;;5046992;28;20036;-76
2023/06/08 05:50:04;;;;;;;16.42;4.85;;;;;;;;;;5021739;28;20660;-76
2023/06/08 05:52:33;;;;;;;16.67;4.70;;;;;;;;;;5020967;28;20112;-76
2023/06/08 05:55:00;;;;;;;16.65;4.50;;;;;;;;;;5024512;28;20434;-77
2023/06/08 05:57:26;;;;;;;8.77;4.22;;;;;;;;;;5023415;28;20048;-76
2023/06/08 05:59:52;;;;;;;11.60;4.45;;;;;;;;;;5019619;28;20080;-77
2023/06/08 06:02:18;;;;;;;18.23;4.82;;;;;;;;;;5024454;28;20416;-76
2023/06/08 06:04:44;;;;;;;18.52;4.13;;;;;;;;;;5023356;28;20033;-78
2023/06/08 06:07:10;;;;;;;15.32;4.13;;;;;;;;;;5024954;28;20087;-79
2023/06/08 06:09:37;;;;;;;14.98;4.93;;;;;;;;;;5022503;28;20053;-78
2023/06/08 06:12:03;;;;;;;9.43;4.43;;;;;;;;;;5019951;28;20044;-74
2023/06/08 06:14:42;;;;;;;13.23;5.93;;;;;;;;;;5023389;28;20120;-76
2023/06/08 06:17:08;;;;;;;19.30;6.78;;;;;;;;;;5019358;28;20036;-76
2023/06/08 06:19:38;;;;;;;15.70;5.55;;;;;;;;;;5019982;28;20036;-75
2023/06/08 06:22:08;;;;;;;16.85;5.03;;;;;;;;;;5018998;28;20029;-78
2023/06/08 06:24:35;;;;;;;16.98;5.00;;;;;;;;;;5029936;28;20029;-76
2023/06/08 06:27:01;;;;;;;13.98;5.10;;;;;;;;;;5030544;28;20040;-76
2023/06/08 06:29:27;;;;;;;18.05;5.38;;;;;;;;;;5030326;28;20438;-76
2023/06/08 06:31:54;;;;;;;16.10;4.82;;;;;;;;;;5030897;28;20052;-75
2023/06/08 06:34:20;;;;;;;17.02;4.97;;;;;;;;;;5031302;28;20033;-75
2023/06/08 06:36:46;;;;;;;15.00;4.78;;;;;;;;;;5028358;28;20052;-74
2023/06/08 06:39:12;;;;;;;20.88;5.03;;;;;;;;;;5026255;28;20037;-75
2023/06/08 06:41:39;;;;;;;15.05;4.60;;;;;;;;;;5029103;28;20027;-74
2023/06/08 06:44:05;;;;;;;14.55;4.20;;;;;;;;;;5030976;28;20033;-74
2023/06/08 06:46:31;;;;;;;16.00;4.57;;;;;;;;;;5028586;28;20026;-75
2023/06/08 06:48:58;;;;;;;17.27;4.45;;;;;;;;;;5027869;28;20450;-76
2023/06/08 06:51:25;;;;;;;10.23;4.28;;;;;;;;;;5041198;28;20026;-74
2023/06/08 06:53:51;;;;;;;17.00;4.47;;;;;;;;;;5026738;28;20507;-75
2023/06/08 06:56:17;;;;;;;14.77;3.72;;;;;;;;;;5027098;28;20038;-79
2023/06/08 06:58:44;;;;;;;23.23;7.03;;;;;;;;;;5027891;28;20033;-75
2023/06/08 07:01:11;;;;;;;19.63;4.70;;;;;;;;;;5022059;28;20045;-76
2023/06/08 07:03:40;;;;;;;9.80;4.25;;;;;;;;;;5023299;28;20084;-76
2023/06/08 07:06:06;;;;;;;17.98;4.40;;;;;;;;;;5013530;28;21355;-76
2023/06/08 07:08:34;;;;;;;13.98;4.15;;;;;;;;;;5016246;28;20038;-75
2023/06/08 07:11:01;;;;;;;17.13;4.50;;;;;;;;;;5015903;28;20014;-79
2023/06/08 07:13:27;;;;;;;14.98;4.35;;;;;;;;;;5016451;28;20099;-78
2023/06/08 07:15:53;;;;;;;14.95;5.63;;;;;;;;;;5015254;28;20025;-78
2023/06/08 07:18:19;;;;;;;14.48;3.88;;;;;;;;;;5019298;28;20040;-77
2023/06/08 07:20:46;;;;;;;13.35;4.45;;;;;;;;;;5017142;28;20498;-76
2023/06/08 07:23:12;;;;;;;13.23;5.25;;;;;;;;;;5014975;28;20130;-78
2023/06/08 07:25:38;;;;;;;14.80;4.30;;;;;;;;;;5017046;28;20091;-77
2023/06/08 07:28:05;;;;;;;14.05;4.18;;;;;;;;;;5018058;28;20029;-76
2023/06/08 07:30:31;;;;;;;12.73;4.13;;;;;;;;;;5015584;28;20716;-78
2023/06/08 07:32:58;;;;;;;11.35;3.92;;;;;;;;;;5016522;28;20061;-77
2023/06/08 07:35:24;;;;;;;10.00;3.75;;;;;;;;;;5016086;28;20029;-78
2023/06/08 07:37:50;;;;;;;11.57;3.58;;;;;;;;;;5016547;28;20494;-76
2023/06/08 07:40:19;;;;;;;15.93;3.97;;;;;;;;;;5016034;28;20037;-74
2023/06/08 07:42:46;;;;;;;15.45;5.45;;;;;;;;;;5019391;28;20029;-75
2023/06/08 07:45:12;;;;;;;15.80;4.80;;;;;;;;;;5028781;28;20057;-76
2023/06/08 07:47:39;;;;;;;11.15;3.97;;;;;;;;;;5030641;28;20034;-75
2023/06/08 07:50:09;;;;;;;11.10;3.50;;;;;;;;;;5029770;28;20104;-74
2023/06/08 07:52:35;;;;;;;12.55;3.70;;;;;;;;;;5028440;28;20037;-76
2023/06/08 07:55:01;;;;;;;10.75;3.50;;;;;;;;;;5025982;28;20042;-77
2023/06/08 07:57:27;;;;;;;11.90;3.35;;;;;;;;;;5030149;28;20116;-77
2023/06/08 07:59:53;;;;;;;9.27;3.83;;;;;;;;;;5023558;28;20045;-79
2023/06/08 08:02:21;;;;;;;11.27;4.07;;;;;;;;;;5027001;28;20048;-78
2023/06/08 08:04:47;;;;;;;12.13;3.65;;;;;;;;;;5028056;28;20033;-78
2023/06/08 08:07:13;;;;;;;12.70;4.13;;;;;;;;;;5017717;28;20751;-78
2023/06/08 08:09:41;;;;;;;12.02;3.50;;;;;;;;;;5015658;28;20033;-79
2023/06/08 08:12:08;;;;;;;14.30;4.68;;;;;;;;;;5020430;28;20528;-75
2023/06/08 08:14:34;;;;;;;17.38;4.85;;;;;;;;;;5025882;28;20037;-76
2023/06/08 08:17:00;;;;;;;20.65;8.52;;;;;;;;;;5023216;28;20111;-76
2023/06/08 08:19:26;;;;;;;12.80;3.83;;;;;;;;;;5025468;28;20064;-76
2023/06/08 08:21:52;;;;;;;13.57;3.85;;;;;;;;;;5020274;28;20064;-76
2023/06/08 08:24:18;;;;;;;14.82;4.15;;;;;;;;;;5031898;28;20490;-76
2023/06/08 08:26:44;;;;;;;12.15;3.60;;;;;;;;;;5027552;28;20037;-76
2023/06/08 08:29:10;;;;;;;11.45;4.00;;;;;;;;;;5029621;28;20480;-76
2023/06/08 08:31:36;;;;;;;13.73;4.32;;;;;;;;;;5024864;28;20124;-76
2023/06/08 08:34:02;;;;;;;19.95;6.07;;;;;;;;;;5026576;28;20060;-77
2023/06/08 08:36:28;;;;;;;12.88;4.70;;;;;;;;;;5027946;28;20128;-77
2023/06/08 08:38:54;;;;;;;28.30;4.50;;;;;;;;;;5020770;28;20104;-76
2023/06/08 08:41:21;;;;;;;8.95;3.60;;;;;;;;;;5019074;28;20065;-76
2023/06/08 08:43:50;;;;;;;11.63;3.45;;;;;;;;;;5028968;28;20037;-76
2023/06/08 08:46:17;;;;;;;10.85;3.55;;;;;;;;;;5027079;28;20041;-74
2023/06/08 08:48:43;;;;;;;9.20;3.40;;;;;;;;;;5026938;28;20392;-75
2023/06/08 08:51:13;;;;;;;12.60;3.70;;;;;;;;;;5027817;28;20079;-78
2023/06/08 08:53:40;;;;;;;12.15;4.18;;;;;;;;;;5024280;28;20091;-89
2023/06/08 08:56:07;;;;;;;12.23;3.33;;;;;;;;;;5030256;28;20038;-81
2023/06/08 08:58:34;;;;;;;13.38;3.95;;;;;;;;;;5026144;28;20029;-80
2023/06/08 09:01:03;;;;;;;13.95;4.38;;;;;;;;;;5023123;28;20050;-78
2023/06/08 09:03:29;;;;;;;11.27;4.13;;;;;;;;;;5021651;28;20032;-77
2023/06/08 09:05:55;;;;;;;12.25;4.05;;;;;;;;;;5016698;28;20119;-77
2023/06/08 09:08:23;;;;;;;18.52;7.10;;;;;;;;;;5022463;28;20118;-78
2023/06/08 09:11:05;;;;;;;12.50;4.88;;;;;;;;;;5026699;28;20671;-79
2023/06/08 09:13:31;;;;;;;;;;;;;;;;;;5024870;28;20021;-77
2023/06/08 09:15:58;;;;;;;9.02;3.83;;;;;;;;;;5022771;28;19919;-82
2023/06/08 09:18:24;;;;;;;9.88;3.72;;;;;;;;;;5025273;28;20476;-78
2023/06/08 09:20:51;;;;;;;10.77;3.83;;;;;;;;;;5028140;28;20053;-84
2023/06/08 09:23:21;;;;;;;12.05;3.70;;;;;;;;;;5029016;28;20475;-83
2023/06/08 09:25:47;;;;;;;22.08;4.95;;;;;;;;;;5028986;28;20036;-82
2023/06/08 09:28:16;;;;;;;24.77;5.68;;;;;;;;;;5026302;28;20375;-81
2023/06/08 09:30:43;;;;;;;14.35;3.70;;;;;;;;;;5025645;28;20025;-83
2023/06/08 09:33:20;;;;;;;10.65;4.05;;;;;;;;;;5025671;28;20025;-82
2023/06/08 09:35:46;;;;;;;12.55;4.47;;;;;;;;;;5023728;28;20021;-79
2023/06/08 09:38:18;;;;;;;9.02;3.35;;;;;;;;;;5026683;28;20590;-82
2023/06/08 09:40:46;;;;;;;10.52;3.80;;;;;;;;;;5026834;28;20091;-82
2023/06/08 09:43:12;;;;;;;14.55;3.60;;;;;;;;;;5022374;28;20030;-76
2023/06/08 09:45:44;;;;;;;15.82;3.58;;;;;;;;;;5018670;28;20025;-74
2023/06/08 09:48:11;;;;;;;10.80;3.30;;;;;;;;;;5022450;28;20533;-75
2023/06/08 09:50:37;;;;;;;9.15;3.30;;;;;;;;;;5019797;28;20104;-78
2023/06/08 09:53:06;;;;;;;8.85;4.20;;;;;;;;;;5021745;28;20065;-77
2023/06/08 09:55:33;;;;;;;9.63;4.05;;;;;;;;;;5029677;28;20030;-76
2023/06/08 09:57:59;;;;;;;8.40;3.40;;;;;;;;;;5027400;28;20064;-74
2023/06/08 10:00:29;;;;;;;11.52;3.83;;;;;;;;;;5027719;28;20050;-75
2023/06/08 10:03:01;;;;;;;10.18;3.58;;;;;;;;;;5029311;28;20033;-74
2023/06/08 10:05:33;;;;;;;11.57;3.83;;;;;;;;;;5024415;28;20498;-74
2023/06/08 10:08:00;;;;;;;12.48;3.45;;;;;;;;;;5028270;28;20033;-75
2023/06/08 10:10:30;;;;;;;9.90;3.13;;;;;;;;;;5026896;28;20442;-78
2023/06/08 10:12:57;;;;;;;10.65;3.95;;;;;;;;;;5025966;28;20534;-76
2023/06/08 10:15:23;;;;;;;11.23;3.38;;;;;;;;;;5025274;28;20037;-76
2023/06/08 10:17:50;;;;;;;10.18;3.70;;;;;;;;;;5023474;28;20033;-75
2023/06/08 10:20:17;;;;;;;11.02;4.50;;;;;;;;;;5022671;28;20103;-75
2023/06/08 10:22:43;;;;;;;9.98;3.85;;;;;;;;;;5025802;28;20033;-74
2023/06/08 10:25:13;;;;;;;12.25;4.72;;;;;;;;;;5024921;28;20048;-77
2023/06/08 10:27:39;;;;;;;12.02;4.68;;;;;;;;;;5027956;28;20025;-79
2023/06/08 10:30:06;;;;;;;11.45;3.85;;;;;;;;;;5027152;28;20106;-72
2023/06/08 10:32:36;;;;;;;13.32;4.35;;;;;;;;;;5024784;28;20080;-74
2023/06/08 10:35:06;;;;;;;9.50;3.70;;;;;;;;;;5013514;28;20521;-74
2023/06/08 10:37:33;;;;;;;9.10;3.38;;;;;;;;;;5029898;28;20050;-74
2023/06/08 10:39:59;;;;;;;10.38;3.30;;;;;;;;;;5026862;28;20089;-74
2023/06/08 10:42:25;;;;;;;12.73;3.88;;;;;;;;;;5031310;28;20139;-74
2023/06/08 10:44:58;;;;;;;10.82;3.70;;;;;;;;;;5030860;28;20075;-74
2023/06/08 10:47:24;;;;;;;9.18;3.95;;;;;;;;;;5030922;28;20040;-74
2023/06/08 10:50:00;;;;;;;13.00;3.63;;;;;;;;;;5028440;28;20137;-74
2023/06/08 10:52:26;;;;;;;12.10;3.50;;;;;;;;;;5030729;28;20536;-74
2023/06/08 10:54:57;;;;;;;13.05;4.03;;;;;;;;;;5029996;28;20095;-74
2023/06/08 10:57:37;;;;;;;8.15;3.08;;;;;;;;;;5011691;28;20120;-74
2023/06/08 11:00:23;;;;;;;14.15;3.33;;;;;;;;;;5015133;28;20129;-74
2023/06/08 11:02:50;;;;;;;6.90;2.92;;;;;;;;;;5024542;28;20036;-75
2023/06/08 11:05:16;;;;;;;8.50;3.30;;;;;;;;;;5027805;28;20049;-74
2023/06/08 11:07:42;;;;;;;14.13;3.55;;;;;;;;;;5028287;28;20033;-74
2023/06/08 11:10:09;;;;;;;14.15;3.28;;;;;;;;;;5029438;28;20430;-75
2023/06/08 11:12:36;;;;;;;9.40;2.55;;;;;;;;;;5028266;28;20491;-74
2023/06/08 11:15:02;;;;;;;10.18;3.05;;;;;;;;;;5029265;28;20033;-74
2023/06/08 11:17:28;;;;;;;11.68;3.58;;;;;;;;;;5038204;28;20033;-74
2023/06/08 11:19:54;;;;;;;9.05;3.10;;;;;;;;;;5027201;28;20025;-74
2023/06/08 11:22:22;;;;;;;8.20;2.55;;;;;;;;;;5027164;28;20044;-74
2023/06/08 11:24:48;;;;;;;6.65;2.85;;;;;;;;;;5028988;28;20021;-74
2023/06/08 11:27:18;;;;;;;8.48;2.75;;;;;;;;;;5027678;28;20107;-75
2023/06/08 11:29:47;;;;;;;12.88;4.22;;;;;;;;;;5027763;28;20048;-74
2023/06/08 11:32:14;;;;;;;10.60;3.45;;;;;;;;;;5030262;28;20060;-74
2023/06/08 11:34:49;;;;;;;16.58;3.55;;;;;;;;;;5024421;28;20533;-74
2023/06/08 11:37:16;;;;;;;6.95;2.88;;;;;;;;;;5021488;28;20037;-74
2023/06/08 11:39:45;;;;;;;10.80;3.15;;;;;;;;;;5030549;28;20175;-74
2023/06/08 11:42:11;;;;;;;10.93;3.40;;;;;;;;;;5045026;28;20372;-74
2023/06/08 11:44:37;;;;;;;8.10;3.42;;;;;;;;;;5027526;28;20466;-74
2023/06/08 11:47:04;;;;;;;9.65;3.55;;;;;;;;;;5028838;28;20034;-74
2023/06/08 11:49:49;;;;;;;8.90;3.85;;;;;;;;;;5030662;28;20467;-74
2023/06/08 11:52:15;;;;;;;10.07;3.70;;;;;;;;;;5023935;28;20025;-74
2023/06/08 11:54:41;;;;;;;8.07;3.53;;;;;;;;;;5028618;28;20387;-74
2023/06/08 11:57:08;;;;;;;9.85;3.38;;;;;;;;;;5029418;28;20045;-74
2023/06/08 11:59:36;;;;;;;13.13;3.50;;;;;;;;;;5033154;28;20054;-74
2023/06/08 12:02:06;;;;;;;8.43;3.60;;;;;;;;;;5031462;28;20372;-74
2023/06/08 12:04:36;;;;;;;11.30;4.63;;;;;;;;;;5033116;28;20036;-75
2023/06/08 12:07:14;;;;;;;12.23;3.55;;;;;;;;;;5031808;28;20621;-74
2023/06/08 12:09:51;;;;;;;10.95;3.33;;;;;;;;;;5031900;28;20037;-74
2023/06/08 12:12:17;;;;;;;10.00;3.85;;;;;;;;;;5032682;28;20037;-75
2023/06/08 12:14:46;;;;;;;7.47;3.53;;;;;;;;;;5030272;28;20051;-74
2023/06/08 12:17:16;;;;;;;8.65;4.47;;;;;;;;;;5030841;28;20121;-74
2023/06/08 12:19:45;;;;;;;14.75;4.25;;;;;;;;;;5033867;28;20029;-74
2023/06/08 12:22:13;;;;;;;11.95;3.85;;;;;;;;;;5026544;28;20422;-75
2023/06/08 12:24:39;;;;;;;11.23;4.32;;;;;;;;;;5033658;28;20022;-74
2023/06/08 12:27:09;;;;;;;14.70;4.72;;;;;;;;;;5032228;28;20467;-74
2023/06/08 12:29:37;;;;;;;8.80;3.22;;;;;;;;;;5033274;28;20154;-74
2023/06/08 12:32:06;;;;;;;12.13;3.97;;;;;;;;;;5032502;28;20037;-74
2023/06/08 12:34:33;;;;;;;14.35;4.38;;;;;;;;;;5034033;28;20087;-74
2023/06/08 12:36:59;;;;;;;12.40;4.25;;;;;;;;;;5030757;28;20065;-74
2023/06/08 12:39:25;;;;;;;14.88;3.90;;;;;;;;;;5033001;28;20064;-74
2023/06/08 12:41:51;;;;;;;13.13;4.80;;;;;;;;;;5032660;28;20033;-74
2023/06/08 12:44:18;;;;;;;9.48;3.65;;;;;;;;;;5032386;28;20034;-74
2023/06/08 12:46:44;;;;;;;7.80;3.20;;;;;;;;;;5033259;28;20525;-74
2023/06/08 12:49:10;;;;;;;9.93;2.70;;;;;;;;;;5018311;28;20038;-74
2023/06/08 12:51:37;;;;;;;10.57;2.75;;;;;;;;;;5023356;28;20090;-75
2023/06/08 12:54:03;;;;;;;5.97;3.00;;;;;;;;;;5029288;28;20084;-74
2023/06/08 12:56:29;;;;;;;9.52;3.53;;;;;;;;;;5033007;28;20033;-74
2023/06/08 12:58:55;;;;;;;16.83;3.35;;;;;;;;;;5033435;28;20117;-74
2023/06/08 13:01:22;;;;;;;6.38;2.70;;;;;;;;;;5031026;28;20391;-75
2023/06/08 13:03:48;;;;;;;10.02;2.92;;;;;;;;;;5031879;28;20040;-74
2023/06/08 13:06:14;;;;;;;9.80;3.65;;;;;;;;;;5022304;28;20036;-74
2023/06/08 13:08:40;;;;;;;15.35;2.85;;;;;;;;;;5040585;28;20104;-74
2023/06/08 13:11:06;;;;;;;9.60;3.00;;;;;;;;;;5029483;28;20034;-75
2023/06/08 13:13:32;;;;;;;9.70;2.92;;;;;;;;;;5031476;28;20029;-74
2023/06/08 13:16:01;;;;;;;7.03;2.17;;;;;;;;;;5032616;28;20027;-74
2023/06/08 13:18:27;;;;;;;8.48;2.42;;;;;;;;;;5022144;28;20032;-74
2023/06/08 13:20:56;;;;;;;8.20;2.03;;;;;;;;;;5026014;28;20033;-74
2023/06/08 13:23:24;;;;;;;7.70;1.83;;;;;;;;;;5028657;28;20390;-73
2023/06/08 13:25:50;;;;;;;7.70;2.13;;;;;;;;;;5032366;28;20048;-74
2023/06/08 13:28:16;;;;;;;10.13;2.33;;;;;;;;;;5032874;28;20033;-74
2023/06/08 13:30:42;;;;;;;8.90;2.10;;;;;;;;;;5029100;28;20092;-74
2023/06/08 13:33:08;;;;;;;11.05;1.98;;;;;;;;;;5030881;28;20364;-74
2023/06/08 13:35:34;;;;;;;8.20;2.47;;;;;;;;;;5028338;28;20523;-74
2023/06/08 13:38:00;;;;;;;6.68;2.80;;;;;;;;;;5027794;28;20061;-76
2023/06/08 13:40:31;;;;;;;7.97;2.20;;;;;;;;;;5030182;28;20068;-76
2023/06/08 13:42:58;;;;;;;11.15;2.58;;;;;;;;;;5032068;28;20030;-72
2023/06/08 13:45:24;;;;;;;6.25;2.45;;;;;;;;;;5018398;28;20491;-73
2023/06/08 13:47:50;;;;;;;5.15;2.47;;;;;;;;;;5018449;28;20061;-74
2023/06/08 13:50:16;;;;;;;9.75;2.67;;;;;;;;;;5043370;28;20029;-72
2023/06/08 13:52:42;;;;;;;9.48;2.80;;;;;;;;;;5026563;28;20029;-76
2023/06/08 13:55:09;;;;;;;7.25;2.67;;;;;;;;;;5022353;28;20482;-74
2023/06/08 13:57:35;;;;;;;9.82;3.75;;;;;;;;;;5018570;28;20041;-74
2023/06/08 14:00:01;;;;;;;5.97;2.28;;;;;;;;;;5028116;28;20057;-76
2023/06/08 14:02:27;;;;;;;6.13;2.20;;;;;;;;;;5025981;28;20030;-76
2023/06/08 14:04:53;;;;;;;5.85;2.38;;;;;;;;;;5029683;28;20422;-75
2023/06/08 14:07:19;;;;;;;6.80;2.38;;;;;;;;;;5031146;28;20041;-75
2023/06/08 14:09:45;;;;;;;5.38;2.50;;;;;;;;;;5024537;28;20694;-76
2023/06/08 14:12:11;;;;;;;6.82;2.15;;;;;;;;;;5029837;28;20270;-76
2023/06/08 14:14:37;;;;;;;9.43;2.38;;;;;;;;;;5029408;28;20049;-76
2023/06/08 14:17:03;;;;;;;12.88;2.25;;;;;;;;;;5005184;28;20049;-74
2023/06/08 14:19:30;;;;;;;6.03;2.33;;;;;;;;;;5028652;28;20056;-75
2023/06/08 14:21:56;;;;;;;6.97;2.05;;;;;;;;;;5030664;28;20490;-74
2023/06/08 14:24:22;;;;;;;7.90;2.38;;;;;;;;;;5026672;28;20116;-76
2023/06/08 14:26:48;;;;;;;3.78;1.85;;;;;;;;;;5026580;28;20137;-76
2023/06/08 14:29:14;;;;;;;5.47;1.95;;;;;;;;;;5028221;28;20041;-77
2023/06/08 14:31:40;;;;;;;6.68;2.10;;;;;;;;;;5029150;28;20045;-76